Time;durP1;ratioP1;P1;durP2;ratioP2;P2;SDS_P1;SDS_P2;PMS_P1;PMS_P2;Temp;Humidity;BMP_temperature;BMP_pressure;BME280_temperature;BME280_humidity;BME280_pressure;Samples;Min_cycle;Max_cycle;Signal;HPM_P1;HPM_P2
2023/07/08 00:00:22;;;;;;;4.18;2.90;;;;;;;18.03;100.00;102065.94;5045361;28;19921;-84
2023/07/08 00:02:52;;;;;;;3.25;2.95;;;;;;;18.03;100.00;102071.28;5021018;28;20037;-86
2023/07/08 00:05:22;;;;;;;7.10;2.80;;;;;;;18.04;100.00;102073.06;5042098;28;20049;-85
2023/07/08 00:07:50;;;;;;;5.25;3.00;;;;;;;18.08;100.00;102065.00;5045992;28;20052;-85
2023/07/08 00:10:23;;;;;;;5.38;2.92;;;;;;;18.11;100.00;102069.44;5025335;28;20064;-85
2023/07/08 00:12:53;;;;;;;11.13;3.00;;;;;;;18.14;100.00;102068.53;5048700;28;20045;-85
2023/07/08 00:15:24;;;;;;;4.83;2.77;;;;;;;18.15;100.00;102068.50;5044229;28;20045;-85
2023/07/08 00:17:51;;;;;;;5.78;3.17;;;;;;;18.16;100.00;102062.25;5030803;28;20507;-85
2023/07/08 00:20:32;;;;;;;10.45;3.92;;;;;;;18.14;100.00;102061.41;5023025;28;20668;-84
2023/07/08 00:23:02;;;;;;;3.13;2.20;;;;;;;18.14;100.00;102064.06;5056193;28;20033;-85
2023/07/08 00:25:32;;;;;;;6.10;3.90;;;;;;;18.12;100.00;102057.88;5001428;28;20049;-85
2023/07/08 00:27:59;;;;;;;7.25;2.88;;;;;;;18.12;100.00;102063.19;5046929;28;20052;-84
2023/07/08 00:30:29;;;;;;;15.52;2.85;;;;;;;18.10;100.00;102057.88;5021268;28;20057;-84
2023/07/08 00:32:58;;;;;;;6.43;2.90;;;;;;;18.08;100.00;102066.78;5053151;28;20032;-85
2023/07/08 00:35:41;;;;;;;3.95;2.92;;;;;;;18.05;100.00;102064.13;5032412;28;20064;-86
2023/07/08 00:38:29;;;;;;;3.30;2.70;;;;;;;18.03;100.00;102060.59;5053998;28;20033;-84
2023/07/08 00:41:06;;;;;;;4.30;3.00;;;;;;;18.02;100.00;102056.19;5029911;28;20412;-85
2023/07/08 00:43:48;;;;;;;3.67;2.97;;;;;;;17.99;100.00;102062.41;5033368;28;20049;-86
2023/07/08 00:46:29;;;;;;;5.55;2.95;;;;;;;17.99;100.00;102056.19;5044228;28;20476;-85
2023/07/08 00:49:37;;;;;;;5.93;2.75;;;;;;;17.97;100.00;102047.34;5019867;28;20037;-85
2023/07/08 00:52:27;;;;;;;4.20;3.15;;;;;;;17.94;100.00;102056.25;5028436;28;20435;-86
2023/07/08 00:54:59;;;;;;;5.00;2.80;;;;;;;17.93;100.00;102063.34;5060397;28;20503;-87
2023/07/08 00:57:31;;;;;;;5.22;2.60;;;;;;;17.94;100.00;102064.25;5009953;28;20050;-86
2023/07/08 01:00:08;;;;;;;3.60;3.30;;;;;;;17.96;100.00;102067.78;5038421;28;20064;-85
2023/07/08 01:02:44;;;;;;;8.70;3.38;;;;;;;17.99;100.00;102064.19;5053821;28;20504;-85
2023/07/08 01:05:16;;;;;;;12.25;3.25;;;;;;;17.98;100.00;102058.00;5039834;28;20407;-85
2023/07/08 01:07:53;;;;;;;5.25;3.00;;;;;;;17.97;100.00;102050.00;5051119;28;20048;-85
2023/07/08 01:10:32;;;;;;;6.10;3.00;;;;;;;17.97;100.00;102050.00;5036456;28;20053;-85
2023/07/08 01:13:03;;;;;;;3.20;2.90;;;;;;;17.97;100.00;102050.88;5025255;28;20056;-85
2023/07/08 01:15:37;;;;;;;6.05;3.53;;;;;;;17.98;100.00;102041.13;5045591;28;20052;-85
2023/07/08 01:18:05;;;;;;;6.05;2.58;;;;;;;17.97;100.00;102055.34;5043204;28;20689;-86
2023/07/08 01:20:33;;;;;;;5.45;3.35;;;;;;;17.99;100.00;102042.88;4995364;28;20046;-85
2023/07/08 01:23:01;;;;;;;4.57;2.78;;;;;;;18.00;100.00;102044.66;5019164;28;20053;-85
2023/07/08 01:25:29;;;;;;;4.95;3.00;;;;;;;17.98;100.00;102049.13;5045477;28;20052;-86
2023/07/08 01:27:58;;;;;;;5.40;3.40;;;;;;;17.97;100.00;102037.53;5017682;28;20045;-85
2023/07/08 01:30:26;;;;;;;6.07;3.45;;;;;;;17.96;100.00;102040.22;5031154;28;20045;-86
2023/07/08 01:32:59;;;;;;;5.53;3.53;;;;;;;17.93;100.00;102034.00;5034482;28;20048;-85
2023/07/08 01:35:27;;;;;;;5.88;3.03;;;;;;;17.90;100.00;102050.06;5054771;28;20059;-86
2023/07/08 01:38:01;;;;;;;9.05;4.43;;;;;;;17.89;100.00;102031.41;4982625;28;20060;-85
2023/07/08 01:40:34;;;;;;;5.15;2.90;;;;;;;17.88;100.00;102019.84;5054154;28;20052;-85
2023/07/08 01:43:04;;;;;;;5.57;3.63;;;;;;;17.89;100.00;102036.72;5033611;28;20057;-86
2023/07/08 01:45:40;;;;;;;9.80;3.25;;;;;;;17.89;100.00;102026.94;5042311;28;20054;-86
2023/07/08 01:48:09;;;;;;;6.18;3.28;;;;;;;17.87;100.00;102028.75;5053408;28;20045;-86
2023/07/08 01:50:40;;;;;;;5.72;3.03;;;;;;;17.86;100.00;102021.66;5043537;28;20053;-84
2023/07/08 01:53:16;;;;;;;5.75;3.40;;;;;;;17.87;100.00;102022.53;5028871;28;20029;-84
2023/07/08 01:55:43;;;;;;;4.03;3.22;;;;;;;17.87;100.00;102020.75;5025384;28;20065;-86
2023/07/08 01:58:11;;;;;;;5.40;3.42;;;;;;;17.85;100.00;102011.88;5010893;28;20064;-85
2023/07/08 02:00:38;;;;;;;5.65;3.30;;;;;;;17.83;100.00;102010.97;5021868;28;20042;-86
2023/07/08 02:03:06;;;;;;;7.00;4.38;;;;;;;17.79;100.00;102011.91;5052986;28;20427;-86
2023/07/08 02:05:33;;;;;;;5.60;3.13;;;;;;;17.78;100.00;102010.13;5047403;28;20052;-85
2023/07/08 02:08:01;;;;;;;5.63;3.50;;;;;;;17.76;100.00;102003.91;4987890;28;20088;-86
2023/07/08 02:10:29;;;;;;;6.28;3.70;;;;;;;17.73;100.00;102007.50;5019501;28;20038;-86
2023/07/08 02:12:56;;;;;;;4.68;3.33;;;;;;;17.73;100.00;102011.94;5037062;28;20264;-85
2023/07/08 02:15:25;;;;;;;5.95;3.83;;;;;;;17.70;100.00;102007.50;5021856;28;20053;-85
2023/07/08 02:17:53;;;;;;;6.33;3.80;;;;;;;17.68;100.00;102001.31;5020393;28;20056;-85
2023/07/08 02:20:21;;;;;;;3.75;3.35;;;;;;;17.67;100.00;102003.97;5018699;28;20053;-85
2023/07/08 02:22:48;;;;;;;6.03;3.15;;;;;;;17.66;100.00;101996.91;4984429;28;20405;-85
2023/07/08 02:25:17;;;;;;;4.65;3.15;;;;;;;17.65;100.00;102005.78;5041810;28;20060;-86
2023/07/08 02:27:46;;;;;;;5.03;3.70;;;;;;;17.65;100.00;102006.66;5027102;28;20057;-85
2023/07/08 02:30:14;;;;;;;4.85;3.40;;;;;;;17.64;100.00;102001.38;4998185;28;20045;-85
2023/07/08 02:32:48;;;;;;;3.70;3.38;;;;;;;17.62;100.00;101993.38;5049947;28;20064;-84
2023/07/08 02:35:16;;;;;;;7.80;3.80;;;;;;;17.61;100.00;101993.38;5037982;28;20049;-85
2023/07/08 02:37:43;;;;;;;6.65;4.00;;;;;;;17.59;100.00;101990.72;5017935;28;20057;-86
2023/07/08 02:40:14;;;;;;;4.13;3.40;;;;;;;17.60;100.00;101987.16;5054035;28;20045;-86
2023/07/08 02:42:41;;;;;;;9.40;3.55;;;;;;;17.59;100.00;101982.72;5035820;28;20060;-86
2023/07/08 02:45:10;;;;;;;8.32;4.00;;;;;;;17.58;100.00;101990.72;5017580;28;20056;-85
2023/07/08 02:47:38;;;;;;;4.90;3.45;;;;;;;17.57;100.00;101976.53;5036111;28;20057;-85
2023/07/08 02:50:08;;;;;;;5.47;3.50;;;;;;;17.56;100.00;101976.53;5020266;28;20041;-86
2023/07/08 02:52:36;;;;;;;6.78;3.72;;;;;;;17.55;100.00;101978.31;5030759;28;20159;-85
2023/07/08 02:55:04;;;;;;;8.00;3.70;;;;;;;17.54;100.00;101969.44;5042501;28;20048;-85
2023/07/08 02:57:32;;;;;;;4.32;3.92;;;;;;;17.53;100.00;101975.66;5047653;28;20408;-84
2023/07/08 02:59:59;;;;;;;5.65;4.03;;;;;;;17.50;100.00;101965.03;5033537;28;20057;-85
2023/07/08 03:02:27;;;;;;;4.10;3.60;;;;;;;17.47;100.00;101962.41;5020811;28;20510;-86
2023/07/08 03:04:54;;;;;;;8.70;4.18;;;;;;;17.46;100.00;101968.59;5037278;28;20048;-84
2023/07/08 03:07:25;;;;;;;7.47;3.90;;;;;;;17.45;100.00;101972.19;5023370;28;20052;-84
2023/07/08 03:09:52;;;;;;;7.25;3.92;;;;;;;17.42;100.00;101974.84;5027246;28;20044;-86
2023/07/08 03:12:20;;;;;;;6.50;3.90;;;;;;;17.41;100.00;101972.19;5041440;28;20053;-85
2023/07/08 03:14:47;;;;;;;7.25;3.83;;;;;;;17.40;100.00;101966.00;5055685;28;20053;-85
2023/07/08 03:17:17;;;;;;;8.40;4.18;;;;;;;17.39;100.00;101966.00;5019761;28;20056;-85
2023/07/08 03:19:45;;;;;;;3.80;3.37;;;;;;;17.38;100.00;101964.25;5025402;28;20041;-85
2023/07/08 03:22:13;;;;;;;3.85;3.28;;;;;;;17.36;100.00;101972.25;5039632;28;20303;-85
2023/07/08 03:24:45;;;;;;;6.93;3.58;;;;;;;17.35;100.00;101965.13;5001133;28;20045;-85
2023/07/08 03:27:17;;;;;;;4.07;3.45;;;;;;;17.33;100.00;101969.59;5056820;28;20049;-85
2023/07/08 03:29:47;;;;;;;3.70;3.35;;;;;;;17.31;100.00;101961.59;5009988;28;20048;-85
2023/07/08 03:32:15;;;;;;;4.63;3.60;;;;;;;17.33;100.00;101970.50;5043062;28;20041;-85
2023/07/08 03:34:42;;;;;;;6.18;4.25;;;;;;;17.33;100.00;101964.25;5010064;28;20057;-86
2023/07/08 03:37:10;;;;;;;5.28;3.95;;;;;;;17.33;100.00;101964.25;5032073;28;20671;-85
2023/07/08 03:39:38;;;;;;;4.63;3.85;;;;;;;17.34;100.00;101956.25;5016036;28;20045;-85
2023/07/08 03:42:05;;;;;;;5.30;3.95;;;;;;;17.34;100.00;101947.41;5011717;28;20056;-85
2023/07/08 03:44:33;;;;;;;5.57;4.07;;;;;;;17.35;100.00;101943.81;5014371;28;20053;-86
2023/07/08 03:47:00;;;;;;;4.38;3.33;;;;;;;17.37;100.00;101947.34;5033898;28;20857;-85
2023/07/08 03:49:28;;;;;;;5.40;3.80;;;;;;;17.38;100.00;101948.25;5015645;28;20060;-85
2023/07/08 03:51:56;;;;;;;5.32;3.38;;;;;;;17.40;100.00;101954.47;5036081;28;20586;-85
2023/07/08 03:54:25;;;;;;;5.15;3.40;;;;;;;17.40;100.00;101960.66;5047980;28;20045;-85
2023/07/08 03:56:55;;;;;;;5.88;3.72;;;;;;;17.42;100.00;101952.66;5002410;28;20053;-85
2023/07/08 03:59:25;;;;;;;6.93;3.87;;;;;;;17.43;100.00;101949.09;5037719;28;20053;-85
2023/07/08 04:01:55;;;;;;;5.00;3.72;;;;;;;17.44;100.00;101953.53;5034504;28;20057;-85
2023/07/08 04:04:24;;;;;;;7.88;3.17;;;;;;;17.48;100.00;101948.16;5021277;28;20049;-85
2023/07/08 04:06:51;;;;;;;5.55;3.50;;;;;;;17.53;100.00;101946.34;5046560;28;20045;-85
2023/07/08 04:09:19;;;;;;;5.05;3.47;;;;;;;17.57;100.00;101949.88;5019078;28;20045;-87
2023/07/08 04:11:46;;;;;;;7.72;5.65;;;;;;;17.59;100.00;101947.19;5000372;28;20142;-85
2023/07/08 04:14:14;;;;;;;9.05;3.65;;;;;;;17.65;100.00;101953.34;5035044;28;20050;-85
2023/07/08 04:16:56;;;;;;;5.13;3.30;;;;;;;17.86;100.00;101951.41;5018033;28;20053;-85
2023/07/08 04:19:26;;;;;;;6.78;3.50;;;;;;;18.27;100.00;101943.00;5038956;28;20048;-85
2023/07/08 04:21:54;;;;;;;5.80;3.40;;;;;;;18.93;100.00;101943.97;5037082;28;20046;-86
2023/07/08 04:24:22;;;;;;;4.75;3.15;;;;;;;19.58;100.00;101942.97;4997342;28;20413;-86
2023/07/08 04:26:50;;;;;;;6.32;3.72;;;;;;;20.18;100.00;101945.47;5032054;28;20045;-84
2023/07/08 04:29:22;;;;;;;9.98;3.03;;;;;;;20.60;100.00;101950.91;5027563;28;20045;-84
2023/07/08 04:31:49;;;;;;;4.35;3.40;;;;;;;20.81;99.28;101936.19;5039288;28;20063;-85
2023/07/08 04:34:20;;;;;;;5.00;3.08;;;;;;;21.14;98.31;101947.03;5018685;28;20045;-86
2023/07/08 04:36:47;;;;;;;5.22;3.83;;;;;;;21.47;96.36;101946.28;5040281;28;20075;-85
2023/07/08 04:39:14;;;;;;;6.20;3.13;;;;;;;21.41;94.92;101953.50;5033084;28;20248;-85
2023/07/08 04:41:43;;;;;;;4.75;3.33;;;;;;;21.69;94.96;101958.22;4996755;28;20064;-86
2023/07/08 04:44:12;;;;;;;3.30;3.00;;;;;;;22.07;92.41;101956.31;5018818;28;20054;-85
2023/07/08 04:46:42;;;;;;;5.80;3.05;;;;;;;22.46;89.02;101950.81;5030931;28;20060;-85
2023/07/08 04:49:10;;;;;;;4.88;2.95;;;;;;;22.72;87.99;101958.09;5046160;28;20056;-85
2023/07/08 04:51:38;;;;;;;6.68;4.13;;;;;;;23.06;85.40;101957.09;5041524;28;20050;-85
2023/07/08 04:54:06;;;;;;;5.82;3.08;;;;;;;23.36;84.68;101959.69;5029236;28;20053;-84
2023/07/08 04:56:41;;;;;;;4.50;3.20;;;;;;;23.71;81.86;101955.84;5005984;28;20683;-83
2023/07/08 04:59:14;;;;;;;3.15;2.83;;;;;;;23.95;81.71;101958.66;5039383;28;20052;-83
2023/07/08 05:01:43;;;;;;;3.78;2.97;;;;;;;24.17;79.39;101958.75;5019627;28;20709;-83
2023/07/08 05:04:17;;;;;;;3.42;3.05;;;;;;;24.32;77.20;101955.47;5038212;28;20045;-83
2023/07/08 05:06:44;;;;;;;4.30;2.88;;;;;;;24.59;77.96;101958.09;5020864;28;20056;-84
2023/07/08 05:09:12;;;;;;;3.53;2.95;;;;;;;24.86;75.22;101942.69;5046917;28;20063;-84
2023/07/08 05:11:44;;;;;;;6.32;3.47;;;;;;;24.82;73.88;101954.56;4979440;28;20041;-85
2023/07/08 05:14:12;;;;;;;4.20;2.90;;;;;;;24.79;73.22;101956.47;5036678;28;20049;-83
2023/07/08 05:16:40;;;;;;;3.65;2.65;;;;;;;24.94;71.95;101955.00;5050070;28;20056;-84
2023/07/08 05:19:14;;;;;;;5.38;3.03;;;;;;;24.97;71.28;101944.97;5054651;28;20057;-82
2023/07/08 05:21:42;;;;;;;5.47;2.60;;;;;;;25.14;71.35;101947.00;5055280;28;20045;-84
2023/07/08 05:24:10;;;;;;;3.78;3.13;;;;;;;25.22;69.49;101952.09;5005528;28;20048;-82
2023/07/08 05:26:39;;;;;;;2.63;2.43;;;;;;;25.21;69.47;101956.56;5050530;28;20057;-84
2023/07/08 05:29:07;;;;;;;6.03;3.13;;;;;;;25.22;68.77;101949.38;4988223;28;20053;-83
2023/07/08 05:31:34;;;;;;;4.88;2.92;;;;;;;25.10;67.47;101964.22;5031175;28;20034;-84
2023/07/08 05:34:15;;;;;;;3.08;2.80;;;;;;;25.05;68.15;101967.13;5020343;28;20057;-84
2023/07/08 05:36:43;;;;;;;3.63;2.78;;;;;;;25.01;67.60;101962.78;5036457;28;20507;-85
2023/07/08 05:39:10;;;;;;;3.08;2.63;;;;;;;25.02;67.61;101963.66;5038866;28;20052;-85
2023/07/08 05:41:38;;;;;;;3.05;2.60;;;;;;;25.17;67.18;101964.88;5019732;28;20072;-84
2023/07/08 05:44:06;;;;;;;3.25;2.80;;;;;;;25.28;66.70;101959.94;5028365;28;20515;-84
2023/07/08 05:46:33;;;;;;;4.20;2.70;;;;;;;25.08;66.29;101969.69;5033379;28;20057;-85
2023/07/08 05:49:01;;;;;;;3.83;3.22;;;;;;;25.08;66.47;101950.81;5033440;28;20050;-85
2023/07/08 05:51:28;;;;;;;3.45;2.58;;;;;;;25.16;66.02;101955.91;5024771;28;20438;-84
2023/07/08 05:53:55;;;;;;;3.10;2.47;;;;;;;25.22;64.92;101954.78;5012375;28;20053;-85
2023/07/08 05:56:23;;;;;;;5.55;2.60;;;;;;;25.31;65.10;101945.44;5029904;28;20050;-84
2023/07/08 05:58:52;;;;;;;7.15;2.90;;;;;;;25.55;64.49;101947.13;4996042;28;20060;-84
2023/07/08 06:01:19;;;;;;;4.45;2.65;;;;;;;25.68;64.57;101947.47;5041874;28;20040;-84
2023/07/08 06:03:47;;;;;;;6.57;2.90;;;;;;;25.84;62.98;101953.06;5010482;28;20060;-85
2023/07/08 06:06:14;;;;;;;3.85;2.67;;;;;;;25.95;62.44;101947.25;5058550;28;20045;-84
2023/07/08 06:08:42;;;;;;;4.90;2.80;;;;;;;26.19;60.77;101947.97;5034703;28;20916;-84
2023/07/08 06:11:09;;;;;;;6.80;2.97;;;;;;;25.81;60.52;101942.44;5024225;28;20041;-84
2023/07/08 06:13:37;;;;;;;5.70;2.63;;;;;;;25.67;60.99;101938.50;4984614;28;20064;-83
2023/07/08 06:16:05;;;;;;;4.63;2.75;;;;;;;25.81;60.54;101932.50;5042619;28;20053;-85
2023/07/08 06:18:32;;;;;;;3.58;2.60;;;;;;;25.78;59.44;101938.03;5057370;28;20823;-84
2023/07/08 06:20:59;;;;;;;3.88;3.28;;;;;;;25.33;59.02;101935.47;5026748;28;20041;-84
2023/07/08 06:23:28;;;;;;;3.47;2.55;;;;;;;24.98;61.46;101940.47;5040572;28;20065;-84
2023/07/08 06:25:56;;;;;;;3.50;2.40;;;;;;;24.69;61.17;101934.41;5046256;28;20045;-85
2023/07/08 06:28:23;;;;;;;5.13;2.50;;;;;;;24.50;62.98;101936.91;5049599;28;20060;-83
2023/07/08 06:30:50;;;;;;;5.30;3.28;;;;;;;24.38;63.81;101919.34;5026042;28;20052;-84
2023/07/08 06:33:18;;;;;;;2.65;2.22;;;;;;;24.51;63.29;101922.47;5057330;28;20048;-84
2023/07/08 06:35:45;;;;;;;3.13;2.58;;;;;;;24.66;62.89;101921.03;5058022;28;20045;-84
2023/07/08 06:38:13;;;;;;;3.67;2.30;;;;;;;24.63;63.35;101929.22;5054598;28;20041;-84
2023/07/08 06:40:42;;;;;;;2.75;2.55;;;;;;;24.67;61.65;101914.72;5031190;28;20049;-84
2023/07/08 06:43:09;;;;;;;5.07;2.67;;;;;;;24.65;61.74;101911.19;5023688;28;20049;-83
2023/07/08 06:45:57;;;;;;;7.25;2.78;;;;;;;24.68;61.11;101913.78;5011765;28;20049;-85
2023/07/08 06:48:25;;;;;;;2.63;2.42;;;;;;;24.60;61.69;101919.47;5038275;28;20057;-86
2023/07/08 06:50:52;;;;;;;4.25;2.83;;;;;;;24.43;61.26;101916.50;5043227;28;20048;-84
2023/07/08 06:53:20;;;;;;;3.72;2.30;;;;;;;24.21;63.76;101919.13;5039679;28;20052;-82
2023/07/08 06:55:47;;;;;;;2.78;2.58;;;;;;;24.21;63.28;101905.66;5012616;28;20219;-82
2023/07/08 06:58:15;;;;;;;5.57;2.60;;;;;;;24.08;64.74;101910.59;5005588;28;20040;-80
2023/07/08 07:00:44;;;;;;;6.47;2.15;;;;;;;24.01;65.19;101904.59;5016604;28;20053;-80
2023/07/08 07:03:12;;;;;;;2.75;2.03;;;;;;;23.90;65.51;101912.16;5017656;28;20044;-81
2023/07/08 07:05:40;;;;;;;5.80;2.70;;;;;;;23.75;66.29;101906.34;5054408;28;20411;-81
2023/07/08 07:08:08;;;;;;;4.22;2.13;;;;;;;23.72;67.26;101908.28;5035707;28;20680;-82
2023/07/08 07:10:35;;;;;;;4.18;2.75;;;;;;;23.78;68.93;101912.56;5036541;28;20392;-81
2023/07/08 07:13:03;;;;;;;2.95;2.22;;;;;;;23.75;69.62;101906.34;5034566;28;20282;-82
2023/07/08 07:15:32;;;;;;;6.22;2.58;;;;;;;23.82;70.39;101903.47;5017905;28;20052;-81
2023/07/08 07:18:00;;;;;;;4.38;2.33;;;;;;;23.91;69.18;101901.34;4984066;28;20719;-79
2023/07/08 07:20:27;;;;;;;2.22;2.03;;;;;;;23.80;70.03;101898.16;5015952;28;20061;-80
2023/07/08 07:22:56;;;;;;;4.60;2.08;;;;;;;23.77;71.26;101900.91;5014791;28;20049;-79
2023/07/08 07:25:24;;;;;;;2.90;2.00;;;;;;;23.81;72.13;101896.34;5029728;28;20078;-79
2023/07/08 07:27:53;;;;;;;5.43;2.27;;;;;;;23.88;71.86;101898.75;5016773;28;20049;-80
2023/07/08 07:30:21;;;;;;;3.03;2.40;;;;;;;23.83;70.89;101891.78;5013867;28;20064;-79
2023/07/08 07:32:48;;;;;;;2.67;2.40;;;;;;;23.75;71.03;101906.34;4978640;28;20041;-80
2023/07/08 07:35:16;;;;;;;3.38;2.30;;;;;;;23.67;71.07;101886.91;5017273;28;20053;-80
2023/07/08 07:37:44;;;;;;;3.35;2.33;;;;;;;23.71;71.88;101902.00;5017767;28;20057;-78
2023/07/08 07:40:15;;;;;;;2.58;2.00;;;;;;;23.77;71.15;101895.53;5012224;28;20052;-79
2023/07/08 07:42:45;;;;;;;3.45;2.40;;;;;;;23.77;70.55;101886.59;5021653;28;20049;-80
2023/07/08 07:45:14;;;;;;;4.30;2.53;;;;;;;23.82;71.54;101899.00;5037757;28;20048;-80
2023/07/08 07:47:41;;;;;;;5.13;2.45;;;;;;;23.83;69.36;101891.78;5044357;28;20051;-78
2023/07/08 07:50:10;;;;;;;2.75;1.98;;;;;;;23.85;69.69;101893.47;4992245;28;20037;-79
2023/07/08 07:52:37;;;;;;;4.50;2.50;;;;;;;23.85;68.60;101893.47;5044234;28;20075;-80
2023/07/08 07:55:05;;;;;;;4.38;2.10;;;;;;;24.01;68.70;101888.44;5025676;28;20059;-80
2023/07/08 07:57:32;;;;;;;4.07;3.00;;;;;;;24.17;68.60;101877.09;5007622;28;20048;-81
2023/07/08 08:00:00;;;;;;;3.67;2.13;;;;;;;24.19;66.76;101875.22;5025233;28;20057;-80
2023/07/08 08:02:28;;;;;;;6.85;2.10;;;;;;;24.17;67.39;101877.97;5038242;28;20045;-79
2023/07/08 08:04:56;;;;;;;2.50;2.30;;;;;;;24.17;67.78;101879.78;4939768;28;20056;-81
2023/07/08 08:07:24;;;;;;;5.45;2.67;;;;;;;24.21;68.81;101881.41;5025012;28;20053;-82
2023/07/08 08:09:51;;;;;;;1.88;1.70;;;;;;;24.15;67.93;101889.72;5028454;28;20807;-79
2023/07/08 08:12:19;;;;;;;2.45;2.20;;;;;;;24.13;69.24;101887.97;5027177;28;20048;-80
2023/07/08 08:14:46;;;;;;;2.80;2.20;;;;;;;24.12;69.13;101878.16;5048916;28;20056;-80
2023/07/08 08:17:13;;;;;;;3.65;2.22;;;;;;;24.05;69.32;101882.00;5013863;28;20539;-80
2023/07/08 08:19:41;;;;;;;2.88;2.63;;;;;;;24.09;71.11;101894.41;4965831;28;20057;-81
2023/07/08 08:22:08;;;;;;;2.42;2.13;;;;;;;24.08;71.73;101891.75;4989699;28;20264;-79
2023/07/08 08:24:36;;;;;;;3.78;2.22;;;;;;;24.05;71.75;101892.75;5001548;28;20041;-79
2023/07/08 08:27:03;;;;;;;6.85;2.30;;;;;;;24.03;72.29;101891.06;5012907;28;20515;-81
2023/07/08 08:29:31;;;;;;;5.18;2.20;;;;;;;24.07;73.17;101893.59;5021567;28;20037;-80
2023/07/08 08:31:58;;;;;;;5.88;2.72;;;;;;;24.06;73.33;101891.81;4991208;28;20046;-79
2023/07/08 08:34:26;;;;;;;4.07;2.55;;;;;;;24.05;73.35;101894.59;4982771;28;20427;-81
2023/07/08 08:36:55;;;;;;;2.53;2.13;;;;;;;23.99;73.32;101889.41;5045475;28;20420;-79
2023/07/08 08:39:24;;;;;;;4.47;2.28;;;;;;;23.97;73.87;101884.09;4994953;28;20048;-80
2023/07/08 08:41:53;;;;;;;6.88;2.70;;;;;;;23.98;74.21;101893.91;5025420;28;20385;-80
2023/07/08 08:44:28;;;;;;;2.75;2.35;;;;;;;23.99;75.27;101901.06;5015327;28;20048;-79
2023/07/08 08:47:12;;;;;;;3.83;2.25;;;;;;;24.03;76.56;101896.47;5025239;28;20045;-82
2023/07/08 08:49:57;;;;;;;2.85;2.45;;;;;;;24.13;74.86;101892.47;4975597;28;20064;-78
2023/07/08 08:52:24;;;;;;;5.40;2.67;;;;;;;24.12;75.09;101899.69;5043027;28;20056;-80
2023/07/08 08:54:52;;;;;;;3.28;2.15;;;;;;;24.16;75.24;101899.56;5007102;28;20068;-80
2023/07/08 08:57:30;;;;;;;6.25;2.40;;;;;;;24.11;76.64;101897.91;5013632;28;20053;-79
2023/07/08 08:59:59;;;;;;;3.85;2.33;;;;;;;24.12;77.36;101897.00;5032131;28;20057;-78
2023/07/08 09:02:29;;;;;;;2.95;2.15;;;;;;;24.17;78.61;101880.66;5019791;28;20065;-77
2023/07/08 09:05:01;;;;;;;;;;;;;;;24.28;81.32;101873.03;5010447;28;20037;-79
2023/07/08 09:07:34;;;;;;;2.97;2.40;;;;;;;24.37;79.54;101889.81;5016355;28;19962;-80
2023/07/08 09:10:14;;;;;;;6.13;2.42;;;;;;;24.40;78.79;101876.22;5022880;28;20060;-79
2023/07/08 09:12:43;;;;;;;6.43;2.53;;;;;;;24.44;78.71;101867.97;5038858;28;20049;-77
2023/07/08 09:15:14;;;;;;;5.13;2.88;;;;;;;24.52;79.89;101863.19;5029737;28;20052;-78
2023/07/08 09:17:42;;;;;;;3.22;2.55;;;;;;;24.60;78.38;101870.09;5045719;28;20045;-79
2023/07/08 09:20:28;;;;;;;3.33;2.30;;;;;;;24.65;79.44;101874.34;4971837;28;20069;-78
2023/07/08 09:23:23;;;;;;;4.20;2.40;;;;;;;24.76;79.57;101876.59;5018823;28;20049;-77
2023/07/08 09:25:59;;;;;;;2.88;2.10;;;;;;;24.86;81.69;101875.31;5029916;28;20049;-78
2023/07/08 09:28:38;;;;;;;3.67;2.65;;;;;;;24.95;79.10;101873.16;5030140;28;20067;-77
2023/07/08 09:31:08;;;;;;;4.40;2.20;;;;;;;25.04;80.61;101865.56;5033467;28;20038;-78
2023/07/08 09:33:38;;;;;;;4.88;2.60;;;;;;;25.20;79.90;101871.22;4991783;28;20049;-79
2023/07/08 09:36:18;;;;;;;2.60;2.40;;;;;;;25.29;78.07;101873.56;4997643;28;20045;-78
2023/07/08 09:38:48;;;;;;;3.42;2.28;;;;;;;25.39;78.63;101857.00;5040776;28;20053;-79
2023/07/08 09:41:33;;;;;;;4.15;2.53;;;;;;;25.50;78.56;101857.41;5000797;28;20492;-78
2023/07/08 09:44:29;;;;;;;2.75;2.53;;;;;;;25.50;72.62;101860.09;5022814;28;20047;-77
2023/07/08 09:46:58;;;;;;;4.40;2.58;;;;;;;25.48;77.25;101852.06;5029282;28;20068;-77
2023/07/08 09:49:35;;;;;;;2.97;2.78;;;;;;;25.61;78.19;101856.91;5009125;28;20053;-77
2023/07/08 09:52:04;;;;;;;2.38;2.22;;;;;;;25.70;78.85;101847.53;4969989;28;20064;-77
2023/07/08 09:54:32;;;;;;;4.40;2.33;;;;;;;25.86;78.73;101843.22;5034827;28;20048;-78
2023/07/08 09:57:25;;;;;;;5.57;2.50;;;;;;;26.03;77.95;101855.94;5035037;28;20450;-78
2023/07/08 10:00:02;;;;;;;3.58;2.17;;;;;;;26.17;77.83;101849.94;5010668;28;20549;-77
2023/07/08 10:02:39;;;;;;;3.67;2.05;;;;;;;26.34;78.87;101852.72;5044871;28;20049;-78
2023/07/08 10:05:18;;;;;;;4.10;2.42;;;;;;;26.48;77.44;101846.63;5015767;28;20044;-79
2023/07/08 10:07:48;;;;;;;3.60;2.30;;;;;;;26.54;73.33;101846.38;4988188;28;20519;-77
2023/07/08 10:10:22;;;;;;;5.30;2.40;;;;;;;26.56;73.46;101843.56;5037485;28;20045;-77
2023/07/08 10:12:59;;;;;;;3.20;2.53;;;;;;;26.59;69.10;101870.47;5034067;28;20060;-77
2023/07/08 10:15:42;;;;;;;5.97;2.25;;;;;;;26.55;66.37;101858.91;5012807;28;20057;-78
2023/07/08 10:18:15;;;;;;;4.70;2.05;;;;;;;26.49;67.65;101861.06;5041365;28;20049;-77
2023/07/08 10:20:52;;;;;;;3.60;2.53;;;;;;;26.42;67.02;101849.63;5021108;28;20049;-79
2023/07/08 10:23:25;;;;;;;4.20;2.47;;;;;;;26.48;68.72;101857.44;4989081;28;20049;-79
2023/07/08 10:26:03;;;;;;;2.35;2.15;;;;;;;26.55;68.31;101848.09;5026889;28;20048;-78
2023/07/08 10:28:45;;;;;;;3.40;2.40;;;;;;;26.66;69.63;101854.88;5023333;28;20056;-78
2023/07/08 10:32:06;;;;;;;4.13;2.35;;;;;;;26.80;67.20;101845.09;5029522;28;20052;-77
2023/07/08 10:34:48;;;;;;;2.40;2.20;;;;;;;26.94;66.07;101848.97;5009713;28;20069;-77
2023/07/08 10:37:27;;;;;;;3.28;2.05;;;;;;;27.00;63.62;101845.97;5017938;28;20056;-79
2023/07/08 10:40:33;;;;;;;4.17;2.33;;;;;;;27.11;65.03;101842.69;4985947;28;20044;-78
2023/07/08 10:43:04;;;;;;;5.63;1.92;;;;;;;27.20;65.19;101837.72;5008215;28;20867;-78
2023/07/08 10:45:46;;;;;;;2.00;1.90;;;;;;;27.37;65.77;101842.28;5029038;28;20518;-78
2023/07/08 10:48:35;;;;;;;2.47;1.98;;;;;;;27.46;64.63;101851.75;5026643;28;20041;-78
2023/07/08 10:51:38;;;;;;;2.40;2.30;;;;;;;27.56;65.90;101849.41;5003710;28;20059;-78
2023/07/08 10:54:05;;;;;;;3.20;2.08;;;;;;;27.66;64.87;101834.47;4992434;28;20048;-79
2023/07/08 10:56:44;;;;;;;2.88;2.38;;;;;;;27.75;61.81;101836.69;5036014;28;20049;-80
2023/07/08 10:59:25;;;;;;;3.97;2.47;;;;;;;27.77;62.35;101837.47;5024665;28;20415;-79
2023/07/08 11:02:00;;;;;;;5.95;2.00;;;;;;;27.81;59.75;101835.47;5046308;28;20063;-79
2023/07/08 11:04:47;;;;;;;5.85;2.33;;;;;;;27.89;61.11;101835.09;5027141;28;22927;-78
2023/07/08 11:07:28;;;;;;;2.97;2.00;;;;;;;27.88;56.53;101836.00;5018353;28;20068;-77
2023/07/08 11:10:05;;;;;;;4.60;2.80;;;;;;;27.92;60.05;101829.50;4983909;28;20065;-78
2023/07/08 11:12:40;;;;;;;4.55;2.67;;;;;;;28.09;60.98;101833.97;5048146;28;20574;-79
2023/07/08 11:15:25;;;;;;;2.88;2.40;;;;;;;28.27;56.86;101826.69;5039519;28;20064;-79
2023/07/08 11:18:06;;;;;;;2.95;2.50;;;;;;;28.41;56.75;101831.31;5039114;28;20052;-80
2023/07/08 11:20:36;;;;;;;3.92;2.70;;;;;;;28.41;56.41;101834.03;5018134;28;20534;-79
2023/07/08 11:23:52;;;;;;;2.30;1.90;;;;;;;28.30;53.86;101824.69;5014680;28;20049;-80
2023/07/08 11:26:41;;;;;;;3.15;2.25;;;;;;;28.33;57.18;101815.50;5032188;28;20048;-78
2023/07/08 11:29:19;;;;;;;2.33;1.88;;;;;;;28.49;57.37;101810.09;5026286;28;20056;-79
2023/07/08 11:31:48;;;;;;;4.30;2.08;;;;;;;28.58;57.20;101809.56;5035349;28;20427;-78
2023/07/08 11:34:18;;;;;;;3.20;2.58;;;;;;;28.68;57.23;101804.50;5026842;28;20045;-78
2023/07/08 11:36:49;;;;;;;2.92;2.72;;;;;;;28.72;55.69;101801.50;5026285;28;20534;-78
2023/07/08 11:39:40;;;;;;;4.75;2.05;;;;;;;28.85;56.97;101801.69;4982204;28;20045;-77
2023/07/08 11:42:25;;;;;;;3.90;2.05;;;;;;;28.92;54.62;101804.88;5029507;28;20489;-78